sensor_id;sensor_type;location;lat;lon;timestamp;P1;durP1;ratioP1;P2;durP2;ratioP2
9508;SDS011;4792;50.088;8.122;2022-11-24T00:01:17;22.00;;;5.50;;
9508;SDS011;4792;50.088;8.122;2022-11-24T00:03:51;28.57;;;10.50;;
9508;SDS011;4792;50.088;8.122;2022-11-24T00:06:21;18.13;;;7.97;;
9508;SDS011;4792;50.088;8.122;2022-11-24T00:08:51;29.50;;;11.77;;
9508;SDS011;4792;50.088;8.122;2022-11-24T00:11:20;15.20;;;5.03;;
9508;SDS011;4792;50.088;8.122;2022-11-24T00:13:50;22.97;;;4.40;;
9508;SDS011;4792;50.088;8.122;2022-11-24T00:16:19;16.63;;;4.87;;
9508;SDS011;4792;50.088;8.122;2022-11-24T00:18:49;20.10;;;3.60;;
9508;SDS011;4792;50.088;8.122;2022-11-24T00:21:19;20.37;;;3.97;;
9508;SDS011;4792;50.088;8.122;2022-11-24T00:23:48;13.87;;;4.00;;
9508;SDS011;4792;50.088;8.122;2022-11-24T00:26:18;11.00;;;3.23;;
9508;SDS011;4792;50.088;8.122;2022-11-24T00:28:48;13.40;;;3.20;;
9508;SDS011;4792;50.088;8.122;2022-11-24T00:31:18;14.20;;;3.57;;
9508;SDS011;4792;50.088;8.122;2022-11-24T00:33:49;14.00;;;4.80;;
9508;SDS011;4792;50.088;8.122;2022-11-24T00:36:19;16.17;;;7.13;;
9508;SDS011;4792;50.088;8.122;2022-11-24T00:38:51;13.13;;;3.63;;
9508;SDS011;4792;50.088;8.122;2022-11-24T00:41:21;16.87;;;3.93;;
9508;SDS011;4792;50.088;8.122;2022-11-24T00:43:50;11.67;;;3.43;;
9508;SDS011;4792;50.088;8.122;2022-11-24T00:46:18;13.17;;;3.57;;
9508;SDS011;4792;50.088;8.122;2022-11-24T00:48:47;8.70;;;3.90;;
9508;SDS011;4792;50.088;8.122;2022-11-24T00:51:15;15.60;;;3.70;;
9508;SDS011;4792;50.088;8.122;2022-11-24T00:53:45;18.53;;;3.83;;
9508;SDS011;4792;50.088;8.122;2022-11-24T00:56:13;15.03;;;4.33;;
9508;SDS011;4792;50.088;8.122;2022-11-24T00:58:43;16.93;;;5.07;;
9508;SDS011;4792;50.088;8.122;2022-11-24T01:01:12;22.43;;;4.67;;
9508;SDS011;4792;50.088;8.122;2022-11-24T01:03:42;15.23;;;4.03;;
9508;SDS011;4792;50.088;8.122;2022-11-24T01:06:12;16.97;;;4.47;;
9508;SDS011;4792;50.088;8.122;2022-11-24T01:08:42;23.17;;;4.77;;
9508;SDS011;4792;50.088;8.122;2022-11-24T01:11:12;20.83;;;4.47;;
9508;SDS011;4792;50.088;8.122;2022-11-24T01:13:43;23.63;;;4.60;;
9508;SDS011;4792;50.088;8.122;2022-11-24T01:16:13;26.83;;;4.27;;
9508;SDS011;4792;50.088;8.122;2022-11-24T01:18:43;22.67;;;4.57;;
9508;SDS011;4792;50.088;8.122;2022-11-24T01:21:11;21.63;;;4.67;;
9508;SDS011;4792;50.088;8.122;2022-11-24T01:23:40;23.97;;;4.83;;
9508;SDS011;4792;50.088;8.122;2022-11-24T01:26:09;19.37;;;4.50;;
9508;SDS011;4792;50.088;8.122;2022-11-24T01:28:39;17.73;;;4.23;;
9508;SDS011;4792;50.088;8.122;2022-11-24T01:31:14;22.77;;;4.20;;
9508;SDS011;4792;50.088;8.122;2022-11-24T01:33:43;23.13;;;4.43;;
9508;SDS011;4792;50.088;8.122;2022-11-24T01:36:11;30.00;;;5.27;;
9508;SDS011;4792;50.088;8.122;2022-11-24T01:38:40;22.13;;;5.10;;
9508;SDS011;4792;50.088;8.122;2022-11-24T01:41:09;19.97;;;5.33;;
9508;SDS011;4792;50.088;8.122;2022-11-24T01:43:39;23.43;;;4.97;;
9508;SDS011;4792;50.088;8.122;2022-11-24T01:46:11;27.93;;;4.83;;
9508;SDS011;4792;50.088;8.122;2022-11-24T01:48:47;27.00;;;4.73;;
9508;SDS011;4792;50.088;8.122;2022-11-24T01:51:21;21.20;;;5.07;;
9508;SDS011;4792;50.088;8.122;2022-11-24T01:53:52;24.17;;;5.47;;
9508;SDS011;4792;50.088;8.122;2022-11-24T01:56:23;18.73;;;4.60;;
9508;SDS011;4792;50.088;8.122;2022-11-24T01:58:53;21.73;;;5.77;;
9508;SDS011;4792;50.088;8.122;2022-11-24T02:01:25;22.20;;;4.73;;
9508;SDS011;4792;50.088;8.122;2022-11-24T02:03:54;19.70;;;4.27;;
9508;SDS011;4792;50.088;8.122;2022-11-24T02:06:25;27.23;;;5.37;;
9508;SDS011;4792;50.088;8.122;2022-11-24T02:08:56;21.10;;;4.10;;
9508;SDS011;4792;50.088;8.122;2022-11-24T02:11:27;25.27;;;4.60;;
9508;SDS011;4792;50.088;8.122;2022-11-24T02:14:02;28.67;;;5.67;;
9508;SDS011;4792;50.088;8.122;2022-11-24T02:16:34;25.60;;;4.87;;
9508;SDS011;4792;50.088;8.122;2022-11-24T02:19:04;29.17;;;4.87;;
9508;SDS011;4792;50.088;8.122;2022-11-24T02:21:40;28.67;;;5.77;;
9508;SDS011;4792;50.088;8.122;2022-11-24T02:24:09;25.03;;;5.57;;
9508;SDS011;4792;50.088;8.122;2022-11-24T02:26:46;25.67;;;4.33;;
9508;SDS011;4792;50.088;8.122;2022-11-24T02:29:17;24.13;;;5.50;;
9508;SDS011;4792;50.088;8.122;2022-11-24T02:31:46;15.63;;;4.80;;
9508;SDS011;4792;50.088;8.122;2022-11-24T02:34:17;33.13;;;5.43;;
9508;SDS011;4792;50.088;8.122;2022-11-24T02:36:45;22.23;;;5.03;;
9508;SDS011;4792;50.088;8.122;2022-11-24T02:39:13;28.00;;;6.10;;
9508;SDS011;4792;50.088;8.122;2022-11-24T02:41:43;21.03;;;4.93;;
9508;SDS011;4792;50.088;8.122;2022-11-24T02:44:17;20.80;;;5.20;;
9508;SDS011;4792;50.088;8.122;2022-11-24T02:46:46;22.17;;;4.40;;
9508;SDS011;4792;50.088;8.122;2022-11-24T02:49:14;21.03;;;4.90;;
9508;SDS011;4792;50.088;8.122;2022-11-24T02:51:42;18.00;;;4.53;;
9508;SDS011;4792;50.088;8.122;2022-11-24T02:54:11;33.33;;;4.67;;
9508;SDS011;4792;50.088;8.122;2022-11-24T02:56:39;25.97;;;4.93;;
9508;SDS011;4792;50.088;8.122;2022-11-24T02:59:08;19.63;;;4.40;;
9508;SDS011;4792;50.088;8.122;2022-11-24T03:01:36;24.57;;;4.73;;
9508;SDS011;4792;50.088;8.122;2022-11-24T03:04:05;19.07;;;5.20;;
9508;SDS011;4792;50.088;8.122;2022-11-24T03:06:33;33.60;;;5.13;;
9508;SDS011;4792;50.088;8.122;2022-11-24T03:09:01;26.23;;;4.97;;
9508;SDS011;4792;50.088;8.122;2022-11-24T03:11:29;31.97;;;5.40;;
9508;SDS011;4792;50.088;8.122;2022-11-24T03:13:57;31.97;;;5.33;;
9508;SDS011;4792;50.088;8.122;2022-11-24T03:16:27;17.47;;;3.93;;
9508;SDS011;4792;50.088;8.122;2022-11-24T03:18:55;24.30;;;5.03;;
9508;SDS011;4792;50.088;8.122;2022-11-24T03:21:23;23.20;;;5.70;;
9508;SDS011;4792;50.088;8.122;2022-11-24T03:23:51;25.57;;;5.43;;
9508;SDS011;4792;50.088;8.122;2022-11-24T03:26:20;22.17;;;5.10;;
9508;SDS011;4792;50.088;8.122;2022-11-24T03:28:49;28.37;;;4.70;;
9508;SDS011;4792;50.088;8.122;2022-11-24T03:31:20;30.20;;;5.10;;
9508;SDS011;4792;50.088;8.122;2022-11-24T03:33:50;17.50;;;4.20;;
9508;SDS011;4792;50.088;8.122;2022-11-24T03:36:18;26.43;;;5.40;;
9508;SDS011;4792;50.088;8.122;2022-11-24T03:38:46;24.90;;;4.47;;
9508;SDS011;4792;50.088;8.122;2022-11-24T03:41:15;36.50;;;6.33;;
9508;SDS011;4792;50.088;8.122;2022-11-24T03:43:43;27.80;;;7.50;;
9508;SDS011;4792;50.088;8.122;2022-11-24T03:46:11;21.43;;;5.77;;
9508;SDS011;4792;50.088;8.122;2022-11-24T03:48:39;24.83;;;5.13;;
9508;SDS011;4792;50.088;8.122;2022-11-24T03:51:09;22.30;;;4.90;;
9508;SDS011;4792;50.088;8.122;2022-11-24T03:53:38;27.57;;;5.10;;
9508;SDS011;4792;50.088;8.122;2022-11-24T03:56:06;18.53;;;4.70;;
9508;SDS011;4792;50.088;8.122;2022-11-24T03:58:34;19.07;;;5.20;;
9508;SDS011;4792;50.088;8.122;2022-11-24T04:01:02;24.33;;;4.97;;
9508;SDS011;4792;50.088;8.122;2022-11-24T04:03:30;20.17;;;5.93;;
9508;SDS011;4792;50.088;8.122;2022-11-24T04:05:58;24.57;;;5.53;;
9508;SDS011;4792;50.088;8.122;2022-11-24T04:08:28;26.50;;;5.97;;
9508;SDS011;4792;50.088;8.122;2022-11-24T04:10:56;30.03;;;6.63;;
9508;SDS011;4792;50.088;8.122;2022-11-24T04:13:24;26.97;;;6.20;;
9508;SDS011;4792;50.088;8.122;2022-11-24T04:15:52;26.83;;;6.07;;
9508;SDS011;4792;50.088;8.122;2022-11-24T04:18:21;19.20;;;5.73;;
9508;SDS011;4792;50.088;8.122;2022-11-24T04:20:49;22.17;;;5.83;;
9508;SDS011;4792;50.088;8.122;2022-11-24T04:23:18;27.47;;;6.20;;
9508;SDS011;4792;50.088;8.122;2022-11-24T04:25:47;27.57;;;6.10;;
9508;SDS011;4792;50.088;8.122;2022-11-24T04:28:15;28.37;;;6.63;;
9508;SDS011;4792;50.088;8.122;2022-11-24T04:30:43;30.93;;;6.83;;
9508;SDS011;4792;50.088;8.122;2022-11-24T04:33:11;22.10;;;6.23;;
9508;SDS011;4792;50.088;8.122;2022-11-24T04:35:40;28.23;;;6.63;;
9508;SDS011;4792;50.088;8.122;2022-11-24T04:38:08;30.70;;;6.80;;
9508;SDS011;4792;50.088;8.122;2022-11-24T04:40:36;28.43;;;6.23;;
9508;SDS011;4792;50.088;8.122;2022-11-24T04:43:06;30.17;;;7.70;;
9508;SDS011;4792;50.088;8.122;2022-11-24T04:45:35;28.67;;;6.77;;
9508;SDS011;4792;50.088;8.122;2022-11-24T04:48:03;24.10;;;6.87;;
9508;SDS011;4792;50.088;8.122;2022-11-24T04:50:32;25.10;;;6.73;;
9508;SDS011;4792;50.088;8.122;2022-11-24T04:53:00;27.87;;;6.70;;
9508;SDS011;4792;50.088;8.122;2022-11-24T04:55:28;20.67;;;7.03;;
9508;SDS011;4792;50.088;8.122;2022-11-24T04:57:56;24.80;;;6.63;;
9508;SDS011;4792;50.088;8.122;2022-11-24T05:00:25;30.23;;;7.23;;
9508;SDS011;4792;50.088;8.122;2022-11-24T05:02:54;22.30;;;6.67;;
9508;SDS011;4792;50.088;8.122;2022-11-24T05:05:22;23.60;;;6.73;;
9508;SDS011;4792;50.088;8.122;2022-11-24T05:07:50;27.33;;;6.93;;
9508;SDS011;4792;50.088;8.122;2022-11-24T05:10:18;22.43;;;6.70;;
9508;SDS011;4792;50.088;8.122;2022-11-24T05:13:06;22.43;;;5.73;;
9508;SDS011;4792;50.088;8.122;2022-11-24T05:15:38;21.57;;;5.63;;
9508;SDS011;4792;50.088;8.122;2022-11-24T05:18:09;22.03;;;6.67;;
9508;SDS011;4792;50.088;8.122;2022-11-24T05:20:38;24.73;;;6.17;;
9508;SDS011;4792;50.088;8.122;2022-11-24T05:23:06;31.90;;;7.40;;
9508;SDS011;4792;50.088;8.122;2022-11-24T05:25:35;24.27;;;6.80;;
9508;SDS011;4792;50.088;8.122;2022-11-24T05:28:04;25.43;;;7.47;;
9508;SDS011;4792;50.088;8.122;2022-11-24T05:30:35;22.33;;;6.67;;
9508;SDS011;4792;50.088;8.122;2022-11-24T05:33:06;30.83;;;6.17;;
9508;SDS011;4792;50.088;8.122;2022-11-24T05:35:36;28.70;;;6.53;;
9508;SDS011;4792;50.088;8.122;2022-11-24T05:38:04;19.00;;;6.33;;
9508;SDS011;4792;50.088;8.122;2022-11-24T05:40:32;19.10;;;6.47;;
9508;SDS011;4792;50.088;8.122;2022-11-24T05:43:00;20.13;;;6.73;;
9508;SDS011;4792;50.088;8.122;2022-11-24T05:45:29;22.97;;;6.37;;
9508;SDS011;4792;50.088;8.122;2022-11-24T05:48:02;19.20;;;5.90;;
9508;SDS011;4792;50.088;8.122;2022-11-24T05:50:33;18.40;;;6.17;;
9508;SDS011;4792;50.088;8.122;2022-11-24T05:53:02;20.20;;;6.20;;
9508;SDS011;4792;50.088;8.122;2022-11-24T05:55:31;24.27;;;6.53;;
9508;SDS011;4792;50.088;8.122;2022-11-24T05:57:59;17.93;;;5.90;;
9508;SDS011;4792;50.088;8.122;2022-11-24T06:00:28;18.60;;;6.00;;
9508;SDS011;4792;50.088;8.122;2022-11-24T06:02:57;19.87;;;6.07;;
9508;SDS011;4792;50.088;8.122;2022-11-24T06:05:27;22.90;;;5.90;;
9508;SDS011;4792;50.088;8.122;2022-11-24T06:07:57;16.27;;;5.87;;
9508;SDS011;4792;50.088;8.122;2022-11-24T06:10:25;20.20;;;6.17;;
9508;SDS011;4792;50.088;8.122;2022-11-24T06:12:54;19.87;;;6.27;;
9508;SDS011;4792;50.088;8.122;2022-11-24T06:15:22;18.20;;;6.07;;
9508;SDS011;4792;50.088;8.122;2022-11-24T06:17:54;19.67;;;5.63;;
9508;SDS011;4792;50.088;8.122;2022-11-24T06:20:23;26.53;;;6.30;;
9508;SDS011;4792;50.088;8.122;2022-11-24T06:22:59;20.33;;;5.73;;
9508;SDS011;4792;50.088;8.122;2022-11-24T06:25:27;21.53;;;5.87;;
9508;SDS011;4792;50.088;8.122;2022-11-24T06:27:56;16.50;;;5.50;;
9508;SDS011;4792;50.088;8.122;2022-11-24T06:30:24;16.80;;;6.07;;
9508;SDS011;4792;50.088;8.122;2022-11-24T06:32:53;14.27;;;5.20;;
9508;SDS011;4792;50.088;8.122;2022-11-24T06:35:21;21.30;;;6.00;;
9508;SDS011;4792;50.088;8.122;2022-11-24T06:37:49;20.40;;;5.77;;
9508;SDS011;4792;50.088;8.122;2022-11-24T06:40:19;17.87;;;6.57;;
9508;SDS011;4792;50.088;8.122;2022-11-24T06:42:50;22.33;;;6.43;;
9508;SDS011;4792;50.088;8.122;2022-11-24T06:45:18;19.83;;;6.83;;
9508;SDS011;4792;50.088;8.122;2022-11-24T06:47:46;16.33;;;7.23;;
9508;SDS011;4792;50.088;8.122;2022-11-24T06:50:15;21.87;;;7.27;;
9508;SDS011;4792;50.088;8.122;2022-11-24T06:52:43;26.90;;;8.00;;
9508;SDS011;4792;50.088;8.122;2022-11-24T06:55:11;24.80;;;7.43;;
9508;SDS011;4792;50.088;8.122;2022-11-24T06:57:40;21.50;;;7.53;;
9508;SDS011;4792;50.088;8.122;2022-11-24T07:00:09;28.27;;;7.90;;
9508;SDS011;4792;50.088;8.122;2022-11-24T07:02:37;24.03;;;7.57;;
9508;SDS011;4792;50.088;8.122;2022-11-24T07:05:11;25.90;;;7.83;;
9508;SDS011;4792;50.088;8.122;2022-11-24T07:07:39;18.83;;;6.93;;
9508;SDS011;4792;50.088;8.122;2022-11-24T07:10:07;24.33;;;8.03;;
9508;SDS011;4792;50.088;8.122;2022-11-24T07:12:36;18.37;;;7.70;;
9508;SDS011;4792;50.088;8.122;2022-11-24T07:15:06;25.53;;;8.13;;
9508;SDS011;4792;50.088;8.122;2022-11-24T07:17:35;23.70;;;7.80;;
9508;SDS011;4792;50.088;8.122;2022-11-24T07:20:04;26.60;;;7.53;;
9508;SDS011;4792;50.088;8.122;2022-11-24T07:22:33;28.73;;;8.87;;
9508;SDS011;4792;50.088;8.122;2022-11-24T07:25:01;25.97;;;7.47;;
9508;SDS011;4792;50.088;8.122;2022-11-24T07:27:32;19.50;;;7.27;;
9508;SDS011;4792;50.088;8.122;2022-11-24T07:30:00;21.30;;;6.93;;
9508;SDS011;4792;50.088;8.122;2022-11-24T07:32:30;22.47;;;6.47;;
9508;SDS011;4792;50.088;8.122;2022-11-24T07:34:59;20.27;;;6.20;;
9508;SDS011;4792;50.088;8.122;2022-11-24T07:37:27;24.43;;;6.63;;
9508;SDS011;4792;50.088;8.122;2022-11-24T07:39:57;23.93;;;7.20;;
9508;SDS011;4792;50.088;8.122;2022-11-24T07:42:25;22.43;;;5.87;;
9508;SDS011;4792;50.088;8.122;2022-11-24T07:44:54;29.43;;;6.50;;
9508;SDS011;4792;50.088;8.122;2022-11-24T07:47:22;20.97;;;6.30;;
9508;SDS011;4792;50.088;8.122;2022-11-24T07:49:51;27.83;;;6.70;;
9508;SDS011;4792;50.088;8.122;2022-11-24T07:52:20;24.10;;;5.10;;
9508;SDS011;4792;50.088;8.122;2022-11-24T07:54:48;21.43;;;5.47;;
9508;SDS011;4792;50.088;8.122;2022-11-24T07:57:16;23.17;;;6.63;;
9508;SDS011;4792;50.088;8.122;2022-11-24T07:59:44;31.87;;;6.23;;
9508;SDS011;4792;50.088;8.122;2022-11-24T08:02:12;26.03;;;6.53;;
9508;SDS011;4792;50.088;8.122;2022-11-24T08:04:40;25.63;;;6.40;;
9508;SDS011;4792;50.088;8.122;2022-11-24T08:07:10;24.00;;;6.33;;
9508;SDS011;4792;50.088;8.122;2022-11-24T08:09:38;24.33;;;6.57;;
9508;SDS011;4792;50.088;8.122;2022-11-24T08:12:06;26.10;;;6.87;;
9508;SDS011;4792;50.088;8.122;2022-11-24T08:14:34;28.43;;;6.13;;
9508;SDS011;4792;50.088;8.122;2022-11-24T08:17:02;19.07;;;6.90;;
9508;SDS011;4792;50.088;8.122;2022-11-24T08:19:31;21.37;;;6.20;;
9508;SDS011;4792;50.088;8.122;2022-11-24T08:22:00;35.07;;;8.20;;
9508;SDS011;4792;50.088;8.122;2022-11-24T08:24:29;28.10;;;6.53;;
9508;SDS011;4792;50.088;8.122;2022-11-24T08:26:58;48.60;;;19.53;;
9508;SDS011;4792;50.088;8.122;2022-11-24T08:29:26;45.77;;;17.03;;
9508;SDS011;4792;50.088;8.122;2022-11-24T08:31:54;28.47;;;12.30;;
9508;SDS011;4792;50.088;8.122;2022-11-24T08:34:23;73.40;;;39.10;;
9508;SDS011;4792;50.088;8.122;2022-11-24T08:36:52;68.20;;;33.10;;
9508;SDS011;4792;50.088;8.122;2022-11-24T08:39:20;32.97;;;9.13;;
9508;SDS011;4792;50.088;8.122;2022-11-24T08:41:50;35.13;;;13.27;;
9508;SDS011;4792;50.088;8.122;2022-11-24T08:44:18;23.43;;;7.53;;
9508;SDS011;4792;50.088;8.122;2022-11-24T08:46:46;33.57;;;10.23;;
9508;SDS011;4792;50.088;8.122;2022-11-24T08:49:15;45.63;;;25.73;;
9508;SDS011;4792;50.088;8.122;2022-11-24T08:51:44;30.07;;;7.77;;
9508;SDS011;4792;50.088;8.122;2022-11-24T08:54:13;33.13;;;11.73;;
9508;SDS011;4792;50.088;8.122;2022-11-24T08:56:44;32.63;;;8.43;;
9508;SDS011;4792;50.088;8.122;2022-11-24T08:59:13;24.37;;;6.87;;
9508;SDS011;4792;50.088;8.122;2022-11-24T09:01:42;27.13;;;7.73;;
9508;SDS011;4792;50.088;8.122;2022-11-24T09:04:10;27.37;;;8.30;;
9508;SDS011;4792;50.088;8.122;2022-11-24T09:06:38;22.57;;;6.70;;
9508;SDS011;4792;50.088;8.122;2022-11-24T09:09:08;21.33;;;6.77;;
9508;SDS011;4792;50.088;8.122;2022-11-24T09:11:36;27.77;;;6.07;;
9508;SDS011;4792;50.088;8.122;2022-11-24T09:14:04;21.57;;;6.63;;
9508;SDS011;4792;50.088;8.122;2022-11-24T09:16:35;21.17;;;5.90;;
9508;SDS011;4792;50.088;8.122;2022-11-24T09:19:04;20.90;;;6.13;;
9508;SDS011;4792;50.088;8.122;2022-11-24T09:21:33;30.67;;;6.90;;
9508;SDS011;4792;50.088;8.122;2022-11-24T09:24:04;25.37;;;6.30;;
9508;SDS011;4792;50.088;8.122;2022-11-24T09:26:34;18.90;;;6.87;;
9508;SDS011;4792;50.088;8.122;2022-11-24T09:29:09;15.57;;;4.10;;
9508;SDS011;4792;50.088;8.122;2022-11-24T09:31:40;21.90;;;4.80;;
9508;SDS011;4792;50.088;8.122;2022-11-24T09:34:10;15.37;;;3.60;;
9508;SDS011;4792;50.088;8.122;2022-11-24T09:36:39;11.97;;;4.27;;
9508;SDS011;4792;50.088;8.122;2022-11-24T09:39:08;14.20;;;3.83;;
9508;SDS011;4792;50.088;8.122;2022-11-24T09:41:53;16.20;;;2.93;;
9508;SDS011;4792;50.088;8.122;2022-11-24T09:44:37;13.40;;;3.07;;
9508;SDS011;4792;50.088;8.122;2022-11-24T09:47:31;15.07;;;3.43;;
9508;SDS011;4792;50.088;8.122;2022-11-24T09:50:05;11.97;;;3.30;;
9508;SDS011;4792;50.088;8.122;2022-11-24T09:52:38;10.27;;;2.77;;
9508;SDS011;4792;50.088;8.122;2022-11-24T09:55:14;12.80;;;2.70;;
9508;SDS011;4792;50.088;8.122;2022-11-24T09:57:56;10.03;;;2.33;;
9508;SDS011;4792;50.088;8.122;2022-11-24T10:00:32;11.93;;;2.60;;
9508;SDS011;4792;50.088;8.122;2022-11-24T10:03:02;15.43;;;2.83;;
9508;SDS011;4792;50.088;8.122;2022-11-24T10:05:32;7.97;;;2.30;;
9508;SDS011;4792;50.088;8.122;2022-11-24T10:08:06;10.63;;;2.87;;
9508;SDS011;4792;50.088;8.122;2022-11-24T10:10:47;12.00;;;3.13;;
9508;SDS011;4792;50.088;8.122;2022-11-24T10:13:25;12.63;;;2.77;;
9508;SDS011;4792;50.088;8.122;2022-11-24T10:16:09;8.33;;;2.53;;
9508;SDS011;4792;50.088;8.122;2022-11-24T10:18:52;9.73;;;2.77;;
9508;SDS011;4792;50.088;8.122;2022-11-24T10:21:39;11.53;;;4.23;;
9508;SDS011;4792;50.088;8.122;2022-11-24T10:24:25;21.17;;;7.53;;
9508;SDS011;4792;50.088;8.122;2022-11-24T10:27:10;8.17;;;2.40;;
9508;SDS011;4792;50.088;8.122;2022-11-24T10:29:44;7.10;;;2.40;;
9508;SDS011;4792;50.088;8.122;2022-11-24T10:32:17;10.57;;;2.37;;
9508;SDS011;4792;50.088;8.122;2022-11-24T10:34:49;7.47;;;2.17;;
9508;SDS011;4792;50.088;8.122;2022-11-24T10:37:19;9.57;;;2.30;;
9508;SDS011;4792;50.088;8.122;2022-11-24T10:39:54;19.60;;;8.43;;
9508;SDS011;4792;50.088;8.122;2022-11-24T10:42:28;6.33;;;3.13;;
9508;SDS011;4792;50.088;8.122;2022-11-24T10:44:58;7.93;;;2.87;;
9508;SDS011;4792;50.088;8.122;2022-11-24T10:47:27;11.27;;;4.30;;
9508;SDS011;4792;50.088;8.122;2022-11-24T10:49:58;8.23;;;2.13;;
9508;SDS011;4792;50.088;8.122;2022-11-24T10:52:31;5.57;;;1.73;;
9508;SDS011;4792;50.088;8.122;2022-11-24T10:55:05;8.87;;;2.23;;
9508;SDS011;4792;50.088;8.122;2022-11-24T10:57:35;12.47;;;2.40;;
9508;SDS011;4792;50.088;8.122;2022-11-24T11:00:26;8.10;;;2.27;;
9508;SDS011;4792;50.088;8.122;2022-11-24T11:03:13;9.57;;;2.27;;
9508;SDS011;4792;50.088;8.122;2022-11-24T11:05:48;9.17;;;2.53;;
9508;SDS011;4792;50.088;8.122;2022-11-24T11:08:22;9.00;;;2.30;;
9508;SDS011;4792;50.088;8.122;2022-11-24T11:11:08;10.47;;;2.67;;
9508;SDS011;4792;50.088;8.122;2022-11-24T11:13:47;9.90;;;2.40;;
9508;SDS011;4792;50.088;8.122;2022-11-24T11:16:26;8.80;;;2.40;;
9508;SDS011;4792;50.088;8.122;2022-11-24T11:19:01;12.33;;;2.50;;
9508;SDS011;4792;50.088;8.122;2022-11-24T11:21:58;9.70;;;2.40;;
9508;SDS011;4792;50.088;8.122;2022-11-24T11:24:28;10.10;;;2.43;;
9508;SDS011;4792;50.088;8.122;2022-11-24T11:26:58;8.50;;;2.60;;
9508;SDS011;4792;50.088;8.122;2022-11-24T11:29:27;10.17;;;3.33;;
9508;SDS011;4792;50.088;8.122;2022-11-24T11:32:17;15.63;;;3.20;;
9508;SDS011;4792;50.088;8.122;2022-11-24T11:35:10;10.67;;;2.83;;
9508;SDS011;4792;50.088;8.122;2022-11-24T11:37:40;10.57;;;3.23;;
9508;SDS011;4792;50.088;8.122;2022-11-24T11:40:11;10.37;;;3.50;;
9508;SDS011;4792;50.088;8.122;2022-11-24T11:42:43;17.10;;;4.57;;
9508;SDS011;4792;50.088;8.122;2022-11-24T11:45:31;13.40;;;4.00;;
9508;SDS011;4792;50.088;8.122;2022-11-24T11:48:05;6.83;;;2.90;;
9508;SDS011;4792;50.088;8.122;2022-11-24T11:50:53;8.13;;;2.50;;
9508;SDS011;4792;50.088;8.122;2022-11-24T11:53:47;9.23;;;3.03;;
9508;SDS011;4792;50.088;8.122;2022-11-24T11:56:24;21.13;;;3.30;;
9508;SDS011;4792;50.088;8.122;2022-11-24T11:59:00;15.37;;;3.20;;
9508;SDS011;4792;50.088;8.122;2022-11-24T12:04:51;10.40;;;3.07;;
9508;SDS011;4792;50.088;8.122;2022-11-24T12:07:26;10.30;;;2.50;;
9508;SDS011;4792;50.088;8.122;2022-11-24T12:10:06;6.63;;;2.27;;
9508;SDS011;4792;50.088;8.122;2022-11-24T12:12:47;8.93;;;2.23;;
9508;SDS011;4792;50.088;8.122;2022-11-24T12:15:29;5.10;;;2.23;;
9508;SDS011;4792;50.088;8.122;2022-11-24T12:18:05;9.10;;;2.13;;
9508;SDS011;4792;50.088;8.122;2022-11-24T12:21:02;8.50;;;2.23;;
9508;SDS011;4792;50.088;8.122;2022-11-24T12:23:40;8.03;;;2.37;;
9508;SDS011;4792;50.088;8.122;2022-11-24T12:26:23;8.00;;;2.20;;
9508;SDS011;4792;50.088;8.122;2022-11-24T12:29:02;9.77;;;3.03;;
9508;SDS011;4792;50.088;8.122;2022-11-24T12:31:50;9.80;;;2.67;;
9508;SDS011;4792;50.088;8.122;2022-11-24T12:34:34;11.03;;;2.47;;
9508;SDS011;4792;50.088;8.122;2022-11-24T12:37:25;5.80;;;1.83;;
9508;SDS011;4792;50.088;8.122;2022-11-24T12:40:09;5.13;;;2.03;;
9508;SDS011;4792;50.088;8.122;2022-11-24T12:42:45;13.33;;;2.80;;
9508;SDS011;4792;50.088;8.122;2022-11-24T12:45:27;8.33;;;2.47;;
9508;SDS011;4792;50.088;8.122;2022-11-24T12:48:08;11.20;;;2.90;;
9508;SDS011;4792;50.088;8.122;2022-11-24T12:50:50;12.20;;;3.37;;
9508;SDS011;4792;50.088;8.122;2022-11-24T12:53:21;14.03;;;3.27;;
9508;SDS011;4792;50.088;8.122;2022-11-24T12:55:51;12.00;;;2.20;;
9508;SDS011;4792;50.088;8.122;2022-11-24T12:58:23;8.00;;;2.00;;
9508;SDS011;4792;50.088;8.122;2022-11-24T13:01:02;5.93;;;2.00;;
9508;SDS011;4792;50.088;8.122;2022-11-24T13:03:43;8.20;;;2.10;;
9508;SDS011;4792;50.088;8.122;2022-11-24T13:06:20;10.47;;;2.33;;
9508;SDS011;4792;50.088;8.122;2022-11-24T13:08:53;8.07;;;2.40;;
9508;SDS011;4792;50.088;8.122;2022-11-24T13:11:39;7.87;;;2.40;;
9508;SDS011;4792;50.088;8.122;2022-11-24T13:14:19;9.23;;;2.90;;
9508;SDS011;4792;50.088;8.122;2022-11-24T13:16:50;9.27;;;3.27;;
9508;SDS011;4792;50.088;8.122;2022-11-24T13:19:42;8.43;;;2.73;;
9508;SDS011;4792;50.088;8.122;2022-11-24T13:22:15;15.50;;;3.00;;
9508;SDS011;4792;50.088;8.122;2022-11-24T13:25:02;10.53;;;2.63;;
9508;SDS011;4792;50.088;8.122;2022-11-24T13:27:43;6.17;;;2.43;;
9508;SDS011;4792;50.088;8.122;2022-11-24T13:38:57;4.90;;;1.43;;
9508;SDS011;4792;50.088;8.122;2022-11-24T13:44:41;9.53;;;2.53;;
9508;SDS011;4792;50.088;8.122;2022-11-24T13:50:20;8.47;;;2.00;;
9508;SDS011;4792;50.088;8.122;2022-11-24T13:52:52;5.93;;;1.87;;
9508;SDS011;4792;50.088;8.122;2022-11-24T13:55:31;9.70;;;2.73;;
9508;SDS011;4792;50.088;8.122;2022-11-24T13:58:04;7.17;;;1.90;;
9508;SDS011;4792;50.088;8.122;2022-11-24T14:01:00;8.20;;;2.37;;
9508;SDS011;4792;50.088;8.122;2022-11-24T14:03:33;8.73;;;2.20;;
9508;SDS011;4792;50.088;8.122;2022-11-24T14:06:04;11.30;;;2.50;;
9508;SDS011;4792;50.088;8.122;2022-11-24T14:08:33;8.53;;;2.20;;
9508;SDS011;4792;50.088;8.122;2022-11-24T14:11:09;11.63;;;2.90;;
9508;SDS011;4792;50.088;8.122;2022-11-24T14:13:40;6.07;;;2.10;;
9508;SDS011;4792;50.088;8.122;2022-11-24T14:16:12;8.97;;;2.10;;
9508;SDS011;4792;50.088;8.122;2022-11-24T14:18:43;6.83;;;2.27;;
9508;SDS011;4792;50.088;8.122;2022-11-24T14:21:24;6.97;;;1.80;;
9508;SDS011;4792;50.088;8.122;2022-11-24T14:23:55;6.30;;;2.07;;
9508;SDS011;4792;50.088;8.122;2022-11-24T14:26:28;6.77;;;2.10;;
9508;SDS011;4792;50.088;8.122;2022-11-24T14:29:04;7.97;;;2.57;;
9508;SDS011;4792;50.088;8.122;2022-11-24T14:31:33;9.93;;;3.13;;
9508;SDS011;4792;50.088;8.122;2022-11-24T14:34:15;9.57;;;2.87;;
9508;SDS011;4792;50.088;8.122;2022-11-24T14:36:45;5.23;;;1.67;;
9508;SDS011;4792;50.088;8.122;2022-11-24T14:39:14;10.83;;;2.67;;
9508;SDS011;4792;50.088;8.122;2022-11-24T14:41:48;7.90;;;2.23;;
9508;SDS011;4792;50.088;8.122;2022-11-24T14:44:20;8.90;;;2.83;;
9508;SDS011;4792;50.088;8.122;2022-11-24T14:46:59;7.30;;;2.10;;
9508;SDS011;4792;50.088;8.122;2022-11-24T14:49:28;9.17;;;2.67;;
9508;SDS011;4792;50.088;8.122;2022-11-24T14:52:00;8.00;;;2.20;;
9508;SDS011;4792;50.088;8.122;2022-11-24T14:54:30;7.87;;;2.00;;
9508;SDS011;4792;50.088;8.122;2022-11-24T14:57:00;5.53;;;2.13;;
9508;SDS011;4792;50.088;8.122;2022-11-24T14:59:31;6.00;;;2.23;;
9508;SDS011;4792;50.088;8.122;2022-11-24T15:02:01;9.23;;;2.17;;
9508;SDS011;4792;50.088;8.122;2022-11-24T15:04:30;9.43;;;2.10;;
9508;SDS011;4792;50.088;8.122;2022-11-24T15:07:22;12.40;;;3.20;;
9508;SDS011;4792;50.088;8.122;2022-11-24T15:09:52;8.80;;;2.30;;
9508;SDS011;4792;50.088;8.122;2022-11-24T15:12:26;9.87;;;2.80;;
9508;SDS011;4792;50.088;8.122;2022-11-24T15:15:00;8.13;;;2.10;;
9508;SDS011;4792;50.088;8.122;2022-11-24T15:17:30;7.93;;;2.40;;
9508;SDS011;4792;50.088;8.122;2022-11-24T15:19:59;10.47;;;2.40;;
9508;SDS011;4792;50.088;8.122;2022-11-24T15:22:36;9.13;;;2.27;;
9508;SDS011;4792;50.088;8.122;2022-11-24T15:25:26;6.87;;;2.40;;
9508;SDS011;4792;50.088;8.122;2022-11-24T15:27:57;14.03;;;2.90;;
9508;SDS011;4792;50.088;8.122;2022-11-24T15:30:26;11.13;;;2.60;;
9508;SDS011;4792;50.088;8.122;2022-11-24T15:32:54;11.97;;;2.80;;
9508;SDS011;4792;50.088;8.122;2022-11-24T15:35:24;8.67;;;2.40;;
9508;SDS011;4792;50.088;8.122;2022-11-24T15:37:56;9.83;;;2.80;;
9508;SDS011;4792;50.088;8.122;2022-11-24T15:40:24;13.03;;;3.13;;
9508;SDS011;4792;50.088;8.122;2022-11-24T15:42:53;9.23;;;2.67;;
9508;SDS011;4792;50.088;8.122;2022-11-24T15:45:28;7.83;;;2.50;;
9508;SDS011;4792;50.088;8.122;2022-11-24T15:47:56;8.13;;;2.03;;
9508;SDS011;4792;50.088;8.122;2022-11-24T15:50:24;12.87;;;2.77;;
9508;SDS011;4792;50.088;8.122;2022-11-24T15:52:52;11.43;;;2.80;;